Chafford Hundred, United Kingdom
Current Conditions -  °F | °C
As of 9:50 AM on Friday 24 Oct 2014 (Local Time) from EGLC Reporting Station
Few Clouds Few Clouds  
Wind Chill: 61°   Ceiling: Unl
Heat Index: 61°   Visibility: 6mi
Dew Point: 55°   Wind: 6mph
Humidity: 82%   Direction: 220°SW
Pressure: 29.97"   Gusts: NA
Location:  51.49°N, 0.29°E
Report Text: EGLC 240850Z 22005KT 170V250 9999 FEW015 16/13 Q1015
Loading
Personal Weather Stations






























Interactive Weather Map New forecast layout! Learn more

10-Day Weather Forecast

Advertisements
Track Severe Weather on mobile